Settsu — JQWO — position and weather

sailwx.info

Track history (hours):
 
Tides and Currents Weather Stations Pressure Air Temp Water Temp Dewpoint Dewpoint Depression Visibility Wind Speed Wind Dir Waves Ship Positions

Settsu

Last reported at 2018-Feb-22 06:46 UTC. Time now 2018-Feb-22 18:29 UTC.
Position N 34°41' E 135°13'.

Length 105 m; draft 5.2 m.

Type: SAR. MMSI: 431282000.

Date/timePositionNaut miles runAvg speedWind from/ knotsBaromVisibWave heightAir tempDewpointWater temp
2018-Feb-22 06:46N 34°41' E 135°13'0 0.0
2018-Feb-22 06:30N 34°41' E 135°13'2 3.4
2018-Feb-22 06:00N 34°40' E 135°15'4 8.8
2018-Feb-22 05:30N 34°39' E 135°20'1 1.6
2018-Feb-22 04:58N 34°40' E 135°20'0 0.0
2018-Feb-22 04:28N 34°40' E 135°20'0 0.0
2018-Feb-22 03:58N 34°40' E 135°20'0 0.0
2018-Feb-22 03:28N 34°40' E 135°20'0 0.0
2018-Feb-22 02:58N 34°40' E 135°20'1 1.7
2018-Feb-22 02:30N 34°39' E 135°20'4 7.7
2018-Feb-22 02:00N 34°40' E 135°15'2 4.4
2018-Feb-22 01:31N 34°41' E 135°13'  
2018-Feb-16 01:33N 34°41' E 135°13'0 0.0
2018-Feb-16 01:30N 34°41' E 135°13'1 2.5
2018-Feb-16 01:00N 34°41' E 135°14'5 9.5
2018-Feb-16 00:30N 34°36' E 135°15'815.7
2018-Feb-16 00:00N 34°32' E 135°07'918.7
2018-Feb-15 23:30N 34°27' E 134°58'2 4.6
2018-Feb-15 22:58N 34°25' E 134°55'0 0.0
2018-Feb-15 22:28N 34°25' E 134°55'0 0.0
2018-Feb-15 21:58N 34°25' E 134°55'0 0.0
2018-Feb-15 21:28N 34°25' E 134°55'0 0.0
2018-Feb-15 20:58N 34°25' E 134°55'0 0.0
2018-Feb-15 20:28N 34°25' E 134°55'0 0.0
2018-Feb-15 19:58N 34°25' E 134°55'0 0.0
2018-Feb-15 19:28N 34°25' E 134°55'0 0.1
2018-Feb-15 18:58N 34°25' E 134°55'0 0.0
2018-Feb-15 18:28N 34°25' E 134°55'0 0.0
2018-Feb-15 17:58N 34°25' E 134°55'0 0.0
2018-Feb-15 17:28N 34°25' E 134°55'0 0.0
2018-Feb-15 16:58N 34°25' E 134°55'0 0.0
2018-Feb-15 16:28N 34°25' E 134°55'0 0.0
2018-Feb-15 15:58N 34°25' E 134°55'0 0.0
2018-Feb-15 15:28N 34°25' E 134°55'0 0.0
2018-Feb-15 14:58N 34°25' E 134°55'0 0.0
2018-Feb-15 14:28N 34°25' E 134°55'0 0.0
2018-Feb-15 13:58N 34°25' E 134°55'0 0.0
2018-Feb-15 13:28N 34°25' E 134°55'0 0.0
2018-Feb-15 12:58N 34°25' E 134°55'0 0.0
2018-Feb-15 12:28N 34°25' E 134°55'0 0.0
2018-Feb-15 11:58N 34°25' E 134°55'0 0.0
2018-Feb-15 11:28N 34°25' E 134°55'0 0.0
2018-Feb-15 10:58N 34°25' E 134°55'0 0.0
2018-Feb-15 10:28N 34°25' E 134°55'0 0.1
2018-Feb-15 09:58N 34°25' E 134°55'0 0.1
2018-Feb-15 09:28N 34°25' E 134°55'0 0.1
2018-Feb-15 08:58N 34°25' E 134°55'0 0.1
2018-Feb-15 08:28N 34°25' E 134°55'0 0.0
2018-Feb-15 07:58N 34°25' E 134°55'0 0.0
2018-Feb-15 07:28N 34°25' E 134°55'0 0.0
2018-Feb-15 06:58N 34°25' E 134°55'0 0.0
2018-Feb-15 06:25N 34°25' E 134°55'0 0.0
2018-Feb-15 05:58N 34°25' E 134°55'0 0.0
2018-Feb-15 05:28N 34°25' E 134°55'0 0.0
2018-Feb-15 04:58N 34°25' E 134°55'0 0.1
2018-Feb-15 04:28N 34°25' E 134°55'0 0.1
2018-Feb-15 03:58N 34°25' E 134°55'0 0.0
2018-Feb-15 03:28N 34°25' E 134°55'1 1.3
2018-Feb-15 03:00N 34°25' E 134°56'713.1
2018-Feb-15 02:31N 34°20' E 135°00'815.3
2018-Feb-15 02:00N 34°12' E 134°58'815.6
2018-Feb-15 01:31N 34°05' E 134°54'714.6
2018-Feb-15 01:00N 33°58' E 134°53'813.6
2018-Feb-15 00:25N 33°54' E 134°45'3 1.7
2018-Feb-14 22:51N 33°53' E 134°42'0 0.0
2018-Feb-14 18:45N 33°53' E 134°42'0 0.0
2018-Feb-14 16:33N 33°53' E 134°42'0 0.1
2018-Feb-14 16:27N 33°53' E 134°42'0 0.0
2018-Feb-14 15:57N 33°53' E 134°42'0 0.0
2018-Feb-14 06:51N 33°53' E 134°42'2 5.6
2018-Feb-14 06:26N 33°53' E 134°44'713.9
2018-Feb-14 05:58N 33°49' E 134°51'4 0.6
2018-Feb-13 23:41N 33°52' E 134°49'6 0.3
2018-Feb-13 04:14N 33°53' E 134°42'4 8.3
2018-Feb-13 03:48N 33°53' E 134°46'615.5
2018-Feb-13 03:25N 33°58' E 134°51'717.3
2018-Feb-13 03:00N 34°05' E 134°54'917.3
2018-Feb-13 02:31N 34°13' E 134°57'816.7
2018-Feb-13 02:00N 34°21' E 135°00'816.8
2018-Feb-13 01:30N 34°27' E 135°07'816.6
2018-Feb-13 01:00N 34°33' E 135°13'714.0
2018-Feb-13 00:30N 34°40' E 135°15'2 3.7
2018-Feb-12 23:57N 34°41' E 135°13'  
Track history (hours):
 
Tides and Currents Weather Stations Pressure Air Temp Water Temp Dewpoint Dewpoint Depression Visibility Wind Speed Wind Dir Waves Ship Positions

Settsu

Last reported at 2018-Feb-22 06:46 UTC. Time now 2018-Feb-22 18:29 UTC.
Position N 34°41' E 135°13'.

Length 105 m; draft 5.2 m.

Type: SAR. MMSI: 431282000.

Date/timePositionNaut miles runAvg speedWind from/ knotsBaromVisibWave heightAir tempDewpointWater temp
2018-Feb-22 06:46N 34°41' E 135°13'0 0.0
2018-Feb-22 06:30N 34°41' E 135°13'2 3.4
2018-Feb-22 06:00N 34°40' E 135°15'4 8.8
2018-Feb-22 05:30N 34°39' E 135°20'1 1.6
2018-Feb-22 04:58N 34°40' E 135°20'0 0.0
2018-Feb-22 04:28N 34°40' E 135°20'0 0.0
2018-Feb-22 03:58N 34°40' E 135°20'0 0.0
2018-Feb-22 03:28N 34°40' E 135°20'0 0.0
2018-Feb-22 02:58N 34°40' E 135°20'1 1.7
2018-Feb-22 02:30N 34°39' E 135°20'4 7.7
2018-Feb-22 02:00N 34°40' E 135°15'2 4.4
2018-Feb-22 01:31N 34°41' E 135°13'  
2018-Feb-16 01:33N 34°41' E 135°13'0 0.0
2018-Feb-16 01:30N 34°41' E 135°13'1 2.5
2018-Feb-16 01:00N 34°41' E 135°14'5 9.5
2018-Feb-16 00:30N 34°36' E 135°15'815.7
2018-Feb-16 00:00N 34°32' E 135°07'918.7
2018-Feb-15 23:30N 34°27' E 134°58'2 4.6
2018-Feb-15 22:58N 34°25' E 134°55'0 0.0
2018-Feb-15 22:28N 34°25' E 134°55'0 0.0
2018-Feb-15 21:58N 34°25' E 134°55'0 0.0
2018-Feb-15 21:28N 34°25' E 134°55'0 0.0
2018-Feb-15 20:58N 34°25' E 134°55'0 0.0
2018-Feb-15 20:28N 34°25' E 134°55'0 0.0
2018-Feb-15 19:58N 34°25' E 134°55'0 0.0
2018-Feb-15 19:28N 34°25' E 134°55'0 0.1
2018-Feb-15 18:58N 34°25' E 134°55'0 0.0
2018-Feb-15 18:28N 34°25' E 134°55'0 0.0
2018-Feb-15 17:58N 34°25' E 134°55'0 0.0
2018-Feb-15 17:28N 34°25' E 134°55'0 0.0
2018-Feb-15 16:58N 34°25' E 134°55'0 0.0
2018-Feb-15 16:28N 34°25' E 134°55'0 0.0
2018-Feb-15 15:58N 34°25' E 134°55'0 0.0
2018-Feb-15 15:28N 34°25' E 134°55'0 0.0
2018-Feb-15 14:58N 34°25' E 134°55'0 0.0
2018-Feb-15 14:28N 34°25' E 134°55'0 0.0
2018-Feb-15 13:58N 34°25' E 134°55'0 0.0
2018-Feb-15 13:28N 34°25' E 134°55'0 0.0
2018-Feb-15 12:58N 34°25' E 134°55'0 0.0
2018-Feb-15 12:28N 34°25' E 134°55'0 0.0
2018-Feb-15 11:58N 34°25' E 134°55'0 0.0
2018-Feb-15 11:28N 34°25' E 134°55'0 0.0
2018-Feb-15 10:58N 34°25' E 134°55'0 0.0
2018-Feb-15 10:28N 34°25' E 134°55'0 0.1
2018-Feb-15 09:58N 34°25' E 134°55'0 0.1
2018-Feb-15 09:28N 34°25' E 134°55'0 0.1
2018-Feb-15 08:58N 34°25' E 134°55'0 0.1
2018-Feb-15 08:28N 34°25' E 134°55'0 0.0
2018-Feb-15 07:58N 34°25' E 134°55'0 0.0
2018-Feb-15 07:28N 34°25' E 134°55'0 0.0
2018-Feb-15 06:58N 34°25' E 134°55'0 0.0
2018-Feb-15 06:25N 34°25' E 134°55'0 0.0
2018-Feb-15 05:58N 34°25' E 134°55'0 0.0
2018-Feb-15 05:28N 34°25' E 134°55'0 0.0
2018-Feb-15 04:58N 34°25' E 134°55'0 0.1
2018-Feb-15 04:28N 34°25' E 134°55'0 0.1
2018-Feb-15 03:58N 34°25' E 134°55'0 0.0
2018-Feb-15 03:28N 34°25' E 134°55'1 1.3
2018-Feb-15 03:00N 34°25' E 134°56'713.1
2018-Feb-15 02:31N 34°20' E 135°00'815.3
2018-Feb-15 02:00N 34°12' E 134°58'815.6
2018-Feb-15 01:31N 34°05' E 134°54'714.6
2018-Feb-15 01:00N 33°58' E 134°53'813.6
2018-Feb-15 00:25N 33°54' E 134°45'3 1.7
2018-Feb-14 22:51N 33°53' E 134°42'0 0.0
2018-Feb-14 18:45N 33°53' E 134°42'0 0.0
2018-Feb-14 16:33N 33°53' E 134°42'0 0.1
2018-Feb-14 16:27N 33°53' E 134°42'0 0.0
2018-Feb-14 15:57N 33°53' E 134°42'0 0.0
2018-Feb-14 06:51N 33°53' E 134°42'2 5.6
2018-Feb-14 06:26N 33°53' E 134°44'713.9
2018-Feb-14 05:58N 33°49' E 134°51'4 0.6
2018-Feb-13 23:41N 33°52' E 134°49'6 0.3
2018-Feb-13 04:14N 33°53' E 134°42'4 8.3
2018-Feb-13 03:48N 33°53' E 134°46'615.5
2018-Feb-13 03:25N 33°58' E 134°51'717.3
2018-Feb-13 03:00N 34°05' E 134°54'917.3
2018-Feb-13 02:31N 34°13' E 134°57'816.7
2018-Feb-13 02:00N 34°21' E 135°00'816.8
2018-Feb-13 01:30N 34°27' E 135°07'816.6
2018-Feb-13 01:00N 34°33' E 135°13'714.0
2018-Feb-13 00:30N 34°40' E 135°15'2 3.7
2018-Feb-12 23:57N 34°41' E 135°13'  

Dump ship's entire track history